Time;durP1;ratioP1;P1;durP2;ratioP2;P2;SDS_P1;SDS_P2;PMS_P1;PMS_P2;Temp;Humidity;BMP_temperature;BMP_pressure;BME280_temperature;BME280_humidity;BME280_pressure;Samples;Min_cycle;Max_cycle;Signal;HPM_P1;HPM_P2
2022/02/28 00:00:29;;;;;;;0.20;0.20;;;;;;;;;;5024102;28;20072;-74
2022/02/28 00:02:56;;;;;;;0.30;0.30;;;;;;;;;;5024108;28;20065;-74
2022/02/28 00:05:23;;;;;;;0.75;0.43;;;;;;;;;;5024285;28;20112;-75
2022/02/28 00:07:49;;;;;;;0.50;0.50;;;;;;;;;;5024239;28;20571;-76
2022/02/28 00:10:16;;;;;;;0.22;0.22;;;;;;;;;;5024950;28;20092;-79
2022/02/28 00:12:43;;;;;;;0.70;0.65;;;;;;;;;;5027296;28;20139;-78
2022/02/28 00:15:10;;;;;;;0.30;0.30;;;;;;;;;;5023986;28;20025;-79
2022/02/28 00:17:36;;;;;;;0.40;0.40;;;;;;;;;;5024009;28;20127;-78
2022/02/28 00:20:04;;;;;;;0.30;0.30;;;;;;;;;;5023898;28;20037;-79
2022/02/28 00:22:30;;;;;;;0.30;0.30;;;;;;;;;;5023970;28;20520;-79
2022/02/28 00:24:56;;;;;;;0.30;0.30;;;;;;;;;;5023933;28;20065;-78
2022/02/28 00:27:22;;;;;;;0.30;0.30;;;;;;;;;;5023743;28;20122;-79
2022/02/28 00:29:48;;;;;;;0.47;0.47;;;;;;;;;;5019599;28;20036;-79
2022/02/28 00:32:14;;;;;;;0.30;0.30;;;;;;;;;;5024094;28;20033;-79
2022/02/28 00:34:40;;;;;;;0.30;0.30;;;;;;;;;;5022822;28;20350;-78
2022/02/28 00:37:06;;;;;;;0.30;0.30;;;;;;;;;;5023872;28;20041;-79
2022/02/28 00:39:32;;;;;;;0.75;0.75;;;;;;;;;;5021912;28;20564;-79
2022/02/28 00:41:59;;;;;;;0.30;0.30;;;;;;;;;;5023851;28;20074;-79
2022/02/28 00:44:25;;;;;;;0.67;0.67;;;;;;;;;;5023749;28;20283;-79
2022/02/28 00:46:51;;;;;;;0.30;0.30;;;;;;;;;;5024251;28;20075;-79
2022/02/28 00:49:17;;;;;;;0.50;0.50;;;;;;;;;;5023690;28;20029;-78
2022/02/28 00:51:43;;;;;;;3.63;0.65;;;;;;;;;;5023609;28;20037;-78
2022/02/28 00:54:09;;;;;;;0.50;0.50;;;;;;;;;;5023376;28;20026;-77
2022/02/28 00:56:35;;;;;;;0.30;0.30;;;;;;;;;;5019014;28;20119;-78
2022/02/28 00:59:01;;;;;;;0.33;0.33;;;;;;;;;;5023265;28;20091;-76
2022/02/28 01:01:27;;;;;;;0.63;0.63;;;;;;;;;;5023805;28;20303;-77
2022/02/28 01:03:53;;;;;;;0.30;0.30;;;;;;;;;;5018927;28;20429;-76
2022/02/28 01:06:19;;;;;;;0.30;0.30;;;;;;;;;;5023534;28;20497;-76
2022/02/28 01:08:45;;;;;;;0.30;0.30;;;;;;;;;;5023302;28;20120;-76
2022/02/28 01:11:12;;;;;;;0.40;0.40;;;;;;;;;;5026974;28;20428;-76
2022/02/28 01:13:38;;;;;;;0.30;0.30;;;;;;;;;;5019537;28;20060;-75
2022/02/28 01:16:04;;;;;;;0.30;0.30;;;;;;;;;;5023541;28;20409;-76
2022/02/28 01:18:30;;;;;;;0.57;0.57;;;;;;;;;;5023202;28;20540;-76
2022/02/28 01:20:56;;;;;;;0.30;0.30;;;;;;;;;;5023493;28;20029;-76
2022/02/28 01:23:22;;;;;;;0.20;0.20;;;;;;;;;;5019627;28;20046;-75
2022/02/28 01:25:48;;;;;;;0.20;0.20;;;;;;;;;;5023380;28;20047;-77
2022/02/28 01:28:14;;;;;;;0.25;0.25;;;;;;;;;;5022701;28;20131;-76
2022/02/28 01:30:40;;;;;;;0.20;0.20;;;;;;;;;;5022927;28;20025;-76
2022/02/28 01:33:06;;;;;;;0.20;0.20;;;;;;;;;;5022782;28;20033;-75
2022/02/28 01:35:32;;;;;;;0.40;0.40;;;;;;;;;;5022802;28;20033;-76
2022/02/28 01:37:58;;;;;;;0.50;0.50;;;;;;;;;;5023065;28;20041;-75
2022/02/28 01:40:25;;;;;;;0.95;0.45;;;;;;;;;;5022105;28;20116;-76
2022/02/28 01:42:51;;;;;;;1.00;0.82;;;;;;;;;;5022696;28;20037;-76
2022/02/28 01:45:21;;;;;;;1.95;1.00;;;;;;;;;;5022403;28;20061;-76
2022/02/28 01:47:48;;;;;;;4.38;0.65;;;;;;;;;;5022400;28;20041;-76
2022/02/28 01:50:14;;;;;;;0.30;0.30;;;;;;;;;;5022638;28;20076;-75
2022/02/28 01:52:41;;;;;;;0.40;0.40;;;;;;;;;;5023351;28;20033;-77
2022/02/28 01:55:08;;;;;;;0.50;0.50;;;;;;;;;;5022482;28;20056;-77
2022/02/28 01:57:34;;;;;;;0.30;0.30;;;;;;;;;;5022255;28;20041;-77
2022/02/28 02:00:00;;;;;;;0.30;0.30;;;;;;;;;;5021174;28;20040;-78
2022/02/28 02:02:26;;;;;;;0.30;0.30;;;;;;;;;;5021229;28;20076;-75
2022/02/28 02:04:52;;;;;;;0.20;0.20;;;;;;;;;;5022473;28;20057;-76
2022/02/28 02:07:18;;;;;;;0.30;0.30;;;;;;;;;;5025243;28;20029;-75
2022/02/28 02:09:44;;;;;;;0.30;0.30;;;;;;;;;;5026604;28;20077;-76
2022/02/28 02:12:10;;;;;;;0.20;0.20;;;;;;;;;;5026482;28;20088;-75
2022/02/28 02:14:37;;;;;;;0.32;0.32;;;;;;;;;;5026458;28;20033;-75
2022/02/28 02:17:03;;;;;;;0.20;0.20;;;;;;;;;;5026302;28;20108;-76
2022/02/28 02:19:30;;;;;;;0.30;0.30;;;;;;;;;;5026863;28;20021;-76
2022/02/28 02:21:56;;;;;;;1.35;0.82;;;;;;;;;;5026053;28;20041;-76
2022/02/28 02:24:22;;;;;;;0.57;0.57;;;;;;;;;;5026336;28;20106;-76
2022/02/28 02:26:48;;;;;;;0.45;0.45;;;;;;;;;;5026485;28;20448;-77
2022/02/28 02:29:14;;;;;;;0.30;0.30;;;;;;;;;;5025989;28;20044;-77
2022/02/28 02:31:40;;;;;;;0.30;0.30;;;;;;;;;;5026871;28;20056;-77
2022/02/28 02:34:06;;;;;;;0.30;0.30;;;;;;;;;;5025799;28;20052;-77
2022/02/28 02:36:32;;;;;;;0.30;0.30;;;;;;;;;;5025723;28;20030;-78
2022/02/28 02:38:58;;;;;;;0.50;0.50;;;;;;;;;;5025712;28;20025;-77
2022/02/28 02:41:24;;;;;;;0.30;0.30;;;;;;;;;;5022240;28;20037;-76
2022/02/28 02:43:50;;;;;;;0.40;0.40;;;;;;;;;;5026021;28;20855;-76
2022/02/28 02:46:16;;;;;;;0.30;0.30;;;;;;;;;;5026379;28;20138;-76
2022/02/28 02:48:42;;;;;;;0.28;0.28;;;;;;;;;;5025819;28;20034;-76
2022/02/28 02:51:08;;;;;;;0.30;0.30;;;;;;;;;;5025880;28;20094;-75
2022/02/28 02:53:35;;;;;;;0.45;0.45;;;;;;;;;;5025664;28;20073;-75
2022/02/28 02:56:01;;;;;;;0.30;0.30;;;;;;;;;;5026085;28;20060;-75
2022/02/28 02:58:27;;;;;;;0.35;0.35;;;;;;;;;;5026331;28;20053;-75
2022/02/28 03:00:54;;;;;;;0.30;0.30;;;;;;;;;;5025663;28;20056;-76
2022/02/28 03:03:22;;;;;;;1.15;0.80;;;;;;;;;;5025215;28;20037;-75
2022/02/28 03:05:48;;;;;;;0.90;0.90;;;;;;;;;;5025817;28;20026;-75
2022/02/28 03:08:15;;;;;;;0.20;0.20;;;;;;;;;;5025158;28;20037;-76
2022/02/28 03:10:41;;;;;;;0.25;0.25;;;;;;;;;;5026569;28;20547;-76
2022/02/28 03:13:07;;;;;;;0.40;0.40;;;;;;;;;;5025157;28;20124;-75
2022/02/28 03:15:33;;;;;;;0.20;0.20;;;;;;;;;;5024916;28;20083;-75
2022/02/28 03:17:59;;;;;;;0.30;0.30;;;;;;;;;;5024133;28;20386;-76
2022/02/28 03:20:25;;;;;;;0.57;0.57;;;;;;;;;;5025133;28;20038;-75
2022/02/28 03:22:52;;;;;;;0.28;0.28;;;;;;;;;;5024971;28;20601;-76
2022/02/28 03:25:18;;;;;;;;;;;;;;;;;;5025565;28;20075;-76
2022/02/28 03:27:44;;;;;;;0.20;0.20;;;;;;;;;;5024704;28;20319;-76
2022/02/28 03:30:10;;;;;;;0.30;0.30;;;;;;;;;;5024660;28;20069;-76
2022/02/28 03:32:36;;;;;;;0.30;0.30;;;;;;;;;;5024560;28;20029;-76
2022/02/28 03:35:03;;;;;;;0.30;0.30;;;;;;;;;;5024842;28;20111;-76
2022/02/28 03:37:29;;;;;;;0.30;0.30;;;;;;;;;;5025132;28;20030;-76
2022/02/28 03:39:55;;;;;;;0.30;0.30;;;;;;;;;;5024434;28;20454;-76
2022/02/28 03:42:21;;;;;;;0.40;0.40;;;;;;;;;;5024400;28;20104;-77
2022/02/28 03:44:47;;;;;;;0.40;0.40;;;;;;;;;;5022820;28;20048;-76
2022/02/28 03:47:14;;;;;;;0.30;0.30;;;;;;;;;;5024606;28;20268;-76
2022/02/28 03:49:40;;;;;;;0.30;0.30;;;;;;;;;;5025422;28;20818;-77
2022/02/28 03:52:06;;;;;;;0.30;0.30;;;;;;;;;;5024826;28;20037;-77
2022/02/28 03:54:33;;;;;;;0.50;0.50;;;;;;;;;;5020097;28;20044;-77
2022/02/28 03:56:59;;;;;;;0.32;0.32;;;;;;;;;;5022769;28;20818;-76
2022/02/28 03:59:25;;;;;;;0.32;0.32;;;;;;;;;;5024237;28;20041;-76
2022/02/28 04:01:51;;;;;;;0.30;0.30;;;;;;;;;;5024630;28;20041;-76
2022/02/28 04:04:17;;;;;;;0.40;0.40;;;;;;;;;;5024975;28;20773;-76
2022/02/28 04:06:46;;;;;;;0.30;0.30;;;;;;;;;;5024621;28;20424;-75
2022/02/28 04:09:13;;;;;;;0.30;0.30;;;;;;;;;;5024254;28;20033;-75
2022/02/28 04:11:39;;;;;;;0.30;0.30;;;;;;;;;;5020575;28;20029;-74
2022/02/28 04:14:06;;;;;;;0.30;0.30;;;;;;;;;;5023817;28;20771;-74
2022/02/28 04:16:32;;;;;;;0.30;0.30;;;;;;;;;;5024724;28;20107;-74
2022/02/28 04:18:58;;;;;;;0.30;0.30;;;;;;;;;;5024188;28;20500;-74
2022/02/28 04:21:24;;;;;;;0.30;0.30;;;;;;;;;;5024562;28;20048;-74
2022/02/28 04:23:51;;;;;;;0.45;0.45;;;;;;;;;;5023818;28;20082;-73
2022/02/28 04:26:18;;;;;;;0.40;0.40;;;;;;;;;;5023947;28;20119;-74
2022/02/28 04:28:45;;;;;;;0.30;0.30;;;;;;;;;;5023886;28;20025;-73
2022/02/28 04:31:11;;;;;;;0.57;0.57;;;;;;;;;;5022572;28;20030;-73
2022/02/28 04:33:37;;;;;;;0.30;0.30;;;;;;;;;;5023288;28;20025;-74
2022/02/28 04:36:03;;;;;;;0.30;0.30;;;;;;;;;;5023699;28;20516;-73
2022/02/28 04:38:29;;;;;;;0.25;0.25;;;;;;;;;;5023421;28;20040;-74
2022/02/28 04:40:55;;;;;;;0.40;0.40;;;;;;;;;;5023605;28;20029;-73
2022/02/28 04:43:21;;;;;;;0.30;0.30;;;;;;;;;;5024244;28;20045;-74
2022/02/28 04:45:47;;;;;;;0.30;0.30;;;;;;;;;;5023712;28;20033;-73
2022/02/28 04:48:13;;;;;;;0.70;0.70;;;;;;;;;;5023762;28;20572;-73
2022/02/28 04:50:39;;;;;;;2.17;0.70;;;;;;;;;;5023698;28;20030;-73
2022/02/28 04:53:05;;;;;;;0.13;0.13;;;;;;;;;;5023600;28;20111;-74
2022/02/28 04:55:32;;;;;;;0.10;0.10;;;;;;;;;;5023731;28;20500;-73
2022/02/28 04:57:58;;;;;;;0.50;0.50;;;;;;;;;;5022963;28;20748;-73
2022/02/28 05:00:24;;;;;;;0.30;0.30;;;;;;;;;;5023237;28;20143;-73
2022/02/28 05:02:50;;;;;;;0.20;0.20;;;;;;;;;;5018435;28;20572;-73
2022/02/28 05:05:16;;;;;;;0.77;0.50;;;;;;;;;;5022948;28;20048;-73
2022/02/28 05:07:42;;;;;;;0.73;0.73;;;;;;;;;;5023618;28;20412;-73
2022/02/28 05:10:08;;;;;;;1.58;0.93;;;;;;;;;;5023263;28;20265;-73
2022/02/28 05:12:34;;;;;;;0.20;0.20;;;;;;;;;;5023169;28;20045;-72
2022/02/28 05:15:00;;;;;;;0.57;0.57;;;;;;;;;;5022758;28;20272;-73
2022/02/28 05:17:26;;;;;;;0.50;0.50;;;;;;;;;;5022912;28;20596;-74
2022/02/28 05:19:52;;;;;;;0.20;0.20;;;;;;;;;;5022753;28;20048;-74
2022/02/28 05:22:18;;;;;;;0.30;0.30;;;;;;;;;;5023041;28;20444;-74
2022/02/28 05:24:44;;;;;;;0.63;0.63;;;;;;;;;;5022745;28;20061;-74
2022/02/28 05:27:10;;;;;;;0.20;0.20;;;;;;;;;;5022596;28;20029;-74
2022/02/28 05:29:37;;;;;;;0.55;0.55;;;;;;;;;;5022912;28;20026;-74
2022/02/28 05:32:03;;;;;;;;;;;;;;;;;;5022967;28;20619;-74
2022/02/28 05:34:29;;;;;;;0.30;0.30;;;;;;;;;;5023220;28;19909;-75
2022/02/28 05:36:55;;;;;;;0.47;0.47;;;;;;;;;;5022358;28;20041;-74
2022/02/28 05:39:21;;;;;;;0.30;0.30;;;;;;;;;;5018469;28;20029;-74
2022/02/28 05:41:47;;;;;;;0.80;0.80;;;;;;;;;;5022736;28;20637;-75
2022/02/28 05:44:13;;;;;;;0.30;0.30;;;;;;;;;;5026713;28;20497;-75
2022/02/28 05:46:39;;;;;;;0.50;0.50;;;;;;;;;;5023094;28;20791;-74
2022/02/28 05:49:06;;;;;;;0.63;0.63;;;;;;;;;;5026612;28;20034;-73
2022/02/28 05:51:32;;;;;;;0.28;0.28;;;;;;;;;;5026665;28;20037;-74
2022/02/28 05:53:58;;;;;;;0.40;0.40;;;;;;;;;;5026230;28;20032;-73
2022/02/28 05:56:24;;;;;;;0.20;0.20;;;;;;;;;;5026500;28;20408;-73
2022/02/28 05:58:51;;;;;;;0.57;0.57;;;;;;;;;;5026995;28;20656;-73
2022/02/28 06:01:17;;;;;;;0.20;0.20;;;;;;;;;;5026733;28;20734;-74
2022/02/28 06:03:43;;;;;;;0.20;0.20;;;;;;;;;;5026296;28;20068;-74
2022/02/28 06:06:09;;;;;;;0.20;0.20;;;;;;;;;;5026429;28;20479;-74
2022/02/28 06:08:35;;;;;;;2.33;0.57;;;;;;;;;;5023718;28;20075;-74
2022/02/28 06:11:01;;;;;;;0.97;0.67;;;;;;;;;;5026358;28;20267;-74
2022/02/28 06:13:27;;;;;;;0.57;0.57;;;;;;;;;;5026873;28;20030;-74
2022/02/28 06:15:53;;;;;;;0.90;0.35;;;;;;;;;;5025740;28;20568;-75
2022/02/28 06:18:19;;;;;;;0.45;0.45;;;;;;;;;;5026116;28;20044;-74
2022/02/28 06:20:45;;;;;;;0.40;0.40;;;;;;;;;;5026088;28;20030;-73
2022/02/28 06:23:14;;;;;;;0.17;0.17;;;;;;;;;;5010309;28;20033;-74
2022/02/28 06:25:44;;;;;;;0.20;0.20;;;;;;;;;;5022712;28;20030;-74
2022/02/28 06:28:11;;;;;;;0.25;0.25;;;;;;;;;;5026274;28;20879;-74
2022/02/28 06:30:37;;;;;;;0.77;0.77;;;;;;;;;;5025789;28;20025;-74
2022/02/28 06:33:04;;;;;;;0.20;0.20;;;;;;;;;;5025848;28;20029;-73
2022/02/28 06:35:30;;;;;;;1.10;0.82;;;;;;;;;;5025919;28;20272;-74
2022/02/28 06:37:56;;;;;;;0.20;0.20;;;;;;;;;;5025645;28;20793;-73
2022/02/28 06:40:22;;;;;;;0.10;0.10;;;;;;;;;;5026307;28;20049;-73
2022/02/28 06:42:48;;;;;;;0.43;0.43;;;;;;;;;;5021936;28;20037;-76
2022/02/28 06:45:14;;;;;;;0.10;0.10;;;;;;;;;;5024088;28;20075;-75
2022/02/28 06:47:40;;;;;;;0.20;0.20;;;;;;;;;;5023711;28;20497;-76
2022/02/28 06:50:07;;;;;;;0.10;0.10;;;;;;;;;;5025102;28;20280;-74
2022/02/28 06:52:33;;;;;;;0.20;0.20;;;;;;;;;;5025486;28;20459;-76
2022/02/28 06:54:59;;;;;;;0.10;0.10;;;;;;;;;;5024617;28;20037;-78
2022/02/28 06:57:26;;;;;;;0.40;0.40;;;;;;;;;;5025685;28;20037;-75
2022/02/28 06:59:52;;;;;;;0.20;0.20;;;;;;;;;;5020605;28;20056;-76
2022/02/28 07:02:18;;;;;;;0.10;0.10;;;;;;;;;;5010104;28;20492;-80
2022/02/28 07:04:44;;;;;;;0.10;0.10;;;;;;;;;;5020976;28;20108;-75
2022/02/28 07:07:14;;;;;;;0.10;0.10;;;;;;;;;;5025887;28;20044;-80
2022/02/28 07:09:40;;;;;;;0.80;0.65;;;;;;;;;;5025269;28;20026;-80
2022/02/28 07:12:06;;;;;;;0.20;0.20;;;;;;;;;;5025900;28;20036;-79
2022/02/28 07:14:32;;;;;;;0.13;0.13;;;;;;;;;;5025315;28;20698;-80
2022/02/28 07:16:58;;;;;;;0.00;0.00;;;;;;;;;;5025103;28;20523;-79
2022/02/28 07:19:24;;;;;;;0.10;0.10;;;;;;;;;;5025661;28;20540;-79
2022/02/28 07:21:50;;;;;;;0.55;0.50;;;;;;;;;;5024535;28;20596;-80
2022/02/28 07:24:17;;;;;;;0.10;0.10;;;;;;;;;;5023629;28;20033;-80
2022/02/28 07:26:43;;;;;;;4.00;3.00;;;;;;;;;;5022728;28;20521;-79
2022/02/28 07:29:09;;;;;;;0.10;0.10;;;;;;;;;;5024162;28;20330;-79
2022/02/28 07:31:36;;;;;;;0.28;0.28;;;;;;;;;;5014160;28;20048;-79
2022/02/28 07:34:02;;;;;;;4.07;2.20;;;;;;;;;;5023196;28;20037;-79
2022/02/28 07:36:28;;;;;;;0.17;0.17;;;;;;;;;;5022444;28;20090;-78
2022/02/28 07:38:54;;;;;;;0.50;0.50;;;;;;;;;;5020571;28;20025;-79
2022/02/28 07:41:20;;;;;;;0.10;0.10;;;;;;;;;;5023475;28;20117;-79
2022/02/28 07:43:46;;;;;;;0.52;0.30;;;;;;;;;;5025160;28;20144;-77
2022/02/28 07:46:12;;;;;;;3.15;0.47;;;;;;;;;;5021208;28;20071;-79
2022/02/28 07:48:38;;;;;;;0.10;0.10;;;;;;;;;;5021650;28;20033;-78
2022/02/28 07:51:04;;;;;;;0.25;0.25;;;;;;;;;;5020813;28;20026;-79
2022/02/28 07:53:30;;;;;;;0.30;0.30;;;;;;;;;;5016933;28;20033;-79
2022/02/28 07:55:57;;;;;;;0.10;0.10;;;;;;;;;;5018885;28;20026;-78
2022/02/28 07:58:22;;;;;;;0.75;0.65;;;;;;;;;;5020372;28;20292;-77
2022/02/28 08:00:48;;;;;;;2.10;0.28;;;;;;;;;;5019305;28;20723;-76
2022/02/28 08:03:15;;;;;;;0.10;0.10;;;;;;;;;;5020910;28;20049;-77
2022/02/28 08:05:41;;;;;;;0.85;0.77;;;;;;;;;;5020215;28;20461;-79
2022/02/28 08:08:08;;;;;;;0.20;0.20;;;;;;;;;;5004706;28;20037;-77
2022/02/28 08:10:34;;;;;;;4.13;1.30;;;;;;;;;;5021227;28;20041;-77
2022/02/28 08:13:00;;;;;;;0.10;0.10;;;;;;;;;;5020676;28;20095;-77
2022/02/28 08:15:26;;;;;;;0.20;0.20;;;;;;;;;;5023104;28;20033;-76
2022/02/28 08:17:52;;;;;;;2.70;1.52;;;;;;;;;;5020510;28;20140;-77
2022/02/28 08:20:18;;;;;;;0.33;0.33;;;;;;;;;;5022743;28;20112;-76
2022/02/28 08:22:45;;;;;;;0.20;0.20;;;;;;;;;;5019253;28;20032;-77
2022/02/28 08:25:11;;;;;;;0.10;0.10;;;;;;;;;;5021689;28;20151;-77
2022/02/28 08:27:37;;;;;;;0.10;0.10;;;;;;;;;;5019572;28;20029;-78
2022/02/28 08:30:04;;;;;;;0.20;0.20;;;;;;;;;;5017115;28;20698;-77
2022/02/28 08:32:30;;;;;;;0.20;0.20;;;;;;;;;;5018870;28;20284;-78
2022/02/28 08:34:56;;;;;;;0.10;0.10;;;;;;;;;;5019782;28;20030;-77
2022/02/28 08:37:22;;;;;;;1.50;0.53;;;;;;;;;;5020430;28;20037;-78
2022/02/28 08:39:48;;;;;;;0.10;0.10;;;;;;;;;;5022353;28;20029;-78
2022/02/28 08:42:14;;;;;;;0.10;0.10;;;;;;;;;;5019523;28;20517;-78
2022/02/28 08:44:40;;;;;;;0.10;0.10;;;;;;;;;;5020161;28;20037;-79
2022/02/28 08:47:07;;;;;;;0.27;0.27;;;;;;;;;;5019902;28;20527;-78
2022/02/28 08:49:35;;;;;;;0.17;0.17;;;;;;;;;;5020603;28;20038;-78
2022/02/28 08:52:01;;;;;;;0.55;0.38;;;;;;;;;;5019527;28;20187;-78
2022/02/28 08:54:27;;;;;;;0.00;0.00;;;;;;;;;;5023907;28;20668;-76
2022/02/28 08:56:53;;;;;;;0.13;0.13;;;;;;;;;;5021957;28;20164;-78
2022/02/28 08:59:19;;;;;;;0.32;0.32;;;;;;;;;;5020956;28;20060;-78
2022/02/28 09:01:45;;;;;;;0.37;0.37;;;;;;;;;;5021235;28;20094;-78
2022/02/28 09:04:11;;;;;;;7.17;0.63;;;;;;;;;;5020697;28;20488;-78
2022/02/28 09:06:37;;;;;;;0.03;0.03;;;;;;;;;;5020120;28;20025;-76
2022/02/28 09:09:03;;;;;;;0.20;0.20;;;;;;;;;;5018457;28;20029;-75
2022/02/28 09:11:29;;;;;;;1.27;0.40;;;;;;;;;;5018111;28;20108;-76
2022/02/28 09:13:56;;;;;;;0.20;0.20;;;;;;;;;;5018344;28;20121;-76
2022/02/28 09:16:22;;;;;;;3.15;1.55;;;;;;;;;;5019200;28;20029;-76
2022/02/28 09:18:48;;;;;;;;;;;;;;;;;;5020927;28;20025;-77
2022/02/28 09:21:14;;;;;;;0.50;0.50;;;;;;;;;;5021112;28;20018;-75
2022/02/28 09:23:40;;;;;;;0.20;0.20;;;;;;;;;;5019870;28;20045;-77
2022/02/28 09:26:06;;;;;;;0.00;0.00;;;;;;;;;;5016336;28;20030;-77
2022/02/28 09:28:33;;;;;;;0.23;0.23;;;;;;;;;;5021083;28;20276;-79
2022/02/28 09:30:59;;;;;;;0.43;0.40;;;;;;;;;;5019863;28;20036;-76
2022/02/28 09:33:25;;;;;;;0.10;0.10;;;;;;;;;;5020946;28;20404;-77
2022/02/28 09:35:52;;;;;;;;;;;;;;;;;;5019876;28;20106;-77
2022/02/28 09:38:18;;;;;;;0.03;0.03;;;;;;;;;;5019367;28;20320;-77
2022/02/28 09:40:46;;;;;;;0.10;0.10;;;;;;;;;;5014568;28;20059;-78
2022/02/28 09:43:12;;;;;;;0.10;0.10;;;;;;;;;;5019808;28;20045;-81
2022/02/28 09:45:38;;;;;;;0.45;0.45;;;;;;;;;;5020239;28;20123;-76
2022/02/28 09:48:06;;;;;;;4.65;0.68;;;;;;;;;;5020843;28;20048;-77
2022/02/28 09:50:32;;;;;;;0.15;0.15;;;;;;;;;;5019189;28;20060;-78
2022/02/28 09:52:59;;;;;;;164.43;153.83;;;;;;;;;;5020003;28;20036;-86
2022/02/28 09:55:25;;;;;;;0.30;0.30;;;;;;;;;;5021231;28;20314;-78
2022/02/28 09:57:51;;;;;;;0.60;0.60;;;;;;;;;;5021466;28;20069;-77
2022/02/28 10:00:17;;;;;;;0.40;0.40;;;;;;;;;;5021707;28;20059;-81
2022/02/28 10:02:43;;;;;;;0.20;0.20;;;;;;;;;;5018048;28;20570;-80
2022/02/28 10:05:10;;;;;;;0.63;0.63;;;;;;;;;;5020828;28;20025;-77
2022/02/28 10:07:47;;;;;;;0.28;0.28;;;;;;;;;;5021863;28;20041;-77
2022/02/28 10:10:13;;;;;;;0.00;0.00;;;;;;;;;;5021578;28;20725;-76
2022/02/28 10:12:40;;;;;;;450.33;104.93;;;;;;;;;;5021017;28;20033;-77
2022/02/28 10:15:08;;;;;;;0.10;0.10;;;;;;;;;;5021564;28;20036;-77
2022/02/28 10:17:41;;;;;;;0.20;0.20;;;;;;;;;;5021536;28;20177;-77
2022/02/28 10:20:14;;;;;;;0.10;0.10;;;;;;;;;;5021988;28;20033;-76
2022/02/28 10:22:40;;;;;;;0.10;0.10;;;;;;;;;;5019913;28;20041;-77
2022/02/28 10:25:07;;;;;;;0.20;0.20;;;;;;;;;;5020746;28;20026;-77
2022/02/28 10:27:33;;;;;;;0.20;0.20;;;;;;;;;;5022060;28;20037;-77
2022/02/28 10:29:59;;;;;;;0.70;0.37;;;;;;;;;;5024640;28;20295;-78
2022/02/28 10:32:27;;;;;;;0.20;0.20;;;;;;;;;;5024795;28;20581;-76
2022/02/28 10:37:45;;;;;;;0.40;0.40;;;;;;;;;;5021631;28;20120;-77
2022/02/28 10:40:11;;;;;;;0.20;0.20;;;;;;;;;;5024318;28;20081;-76
2022/02/28 10:43:04;;;;;;;0.20;0.20;;;;;;;;;;5021779;28;20189;-77
2022/02/28 10:45:30;;;;;;;0.20;0.20;;;;;;;;;;5020563;28;20552;-77
2022/02/28 10:47:56;;;;;;;0.28;0.28;;;;;;;;;;5021923;28;20117;-76
2022/02/28 10:50:41;;;;;;;0.10;0.10;;;;;;;;;;5020762;28;20103;-78
2022/02/28 10:53:15;;;;;;;1.17;0.50;;;;;;;;;;5021380;28;20509;-77
2022/02/28 10:55:41;;;;;;;0.10;0.10;;;;;;;;;;5023383;28;20096;-77
2022/02/28 10:58:08;;;;;;;0.43;0.38;;;;;;;;;;5018851;28;20469;-77
2022/02/28 11:00:57;;;;;;;0.10;0.10;;;;;;;;;;5019042;28;20056;-77
2022/02/28 11:03:25;;;;;;;5.72;0.95;;;;;;;;;;5022096;28;20125;-77
2022/02/28 11:05:54;;;;;;;0.00;0.00;;;;;;;;;;5021170;28;20112;-77
2022/02/28 11:08:24;;;;;;;0.30;0.30;;;;;;;;;;5019053;28;20033;-78
2022/02/28 11:10:51;;;;;;;1.17;1.08;;;;;;;;;;5020745;28;20033;-77
2022/02/28 11:13:17;;;;;;;0.20;0.20;;;;;;;;;;5021429;28;20041;-77
2022/02/28 11:15:43;;;;;;;0.10;0.10;;;;;;;;;;5021314;28;20029;-77
2022/02/28 11:18:13;;;;;;;0.30;0.28;;;;;;;;;;5019120;28;20037;-77
2022/02/28 11:20:39;;;;;;;0.95;0.55;;;;;;;;;;5019029;28;20389;-79
2022/02/28 11:23:05;;;;;;;0.35;0.35;;;;;;;;;;5020161;28;20049;-76
2022/02/28 11:25:32;;;;;;;5.80;0.43;;;;;;;;;;5019270;28;20489;-76
2022/02/28 11:27:59;;;;;;;0.45;0.32;;;;;;;;;;5019252;28;20292;-76
2022/02/28 11:30:28;;;;;;;4.63;0.20;;;;;;;;;;5020877;28;20151;-76
2022/02/28 11:33:00;;;;;;;2.15;0.55;;;;;;;;;;5020200;28;20065;-76
2022/02/28 11:35:35;;;;;;;0.20;0.17;;;;;;;;;;5018905;28;20540;-76
2022/02/28 11:38:02;;;;;;;13.05;0.57;;;;;;;;;;5020683;28;20166;-76
2022/02/28 11:40:32;;;;;;;1.33;0.38;;;;;;;;;;5023982;28;20108;-76
2022/02/28 11:43:18;;;;;;;0.20;0.20;;;;;;;;;;5018603;28;20584;-76
2022/02/28 11:45:44;;;;;;;;;;;;;;;;;;5020123;28;20029;-76
2022/02/28 11:48:11;;;;;;;0.10;0.10;;;;;;;;;;5019024;28;20395;-76
2022/02/28 11:50:50;;;;;;;0.20;0.20;;;;;;;;;;5019735;28;20874;-77
2022/02/28 11:53:49;;;;;;;0.10;0.10;;;;;;;;;;5021502;28;20025;-76
2022/02/28 11:56:18;;;;;;;0.10;0.10;;;;;;;;;;4944829;28;20075;-76
2022/02/28 11:58:50;;;;;;;0.10;0.10;;;;;;;;;;4946948;28;20126;-76
2022/02/28 12:01:17;;;;;;;0.65;0.65;;;;;;;;;;4946395;28;20066;-76
2022/02/28 12:04:10;;;;;;;0.70;0.25;;;;;;;;;;4946744;28;20049;-76
2022/02/28 12:06:54;;;;;;;1.10;0.55;;;;;;;;;;4948923;28;20049;-78
2022/02/28 12:09:33;;;;;;;0.70;0.70;;;;;;;;;;4943837;28;20074;-78
2022/02/28 12:12:18;;;;;;;0.65;0.65;;;;;;;;;;4942125;28;20047;-78
2022/02/28 12:15:05;;;;;;;0.35;0.35;;;;;;;;;;4941431;28;20114;-78
2022/02/28 12:17:37;;;;;;;0.10;0.10;;;;;;;;;;4943055;28;20070;-77
2022/02/28 12:20:29;;;;;;;0.40;0.40;;;;;;;;;;4943905;28;20668;-78
2022/02/28 12:25:32;;;;;;;;;;;;;;;;;;4947367;28;20075;-78
2022/02/28 12:27:59;;;;;;;0.30;0.30;;;;;;;;;;4931494;28;19953;-78
2022/02/28 12:30:37;;;;;;;0.20;0.20;;;;;;;;;;4942432;28;20039;-77
2022/02/28 12:33:03;;;;;;;0.52;0.52;;;;;;;;;;4997102;28;20524;-83
2022/02/28 12:35:47;;;;;;;0.20;0.20;;;;;;;;;;5001688;28;20025;-79
2022/02/28 12:38:14;;;;;;;0.10;0.10;;;;;;;;;;5001548;28;20034;-77
2022/02/28 12:40:46;;;;;;;0.20;0.20;;;;;;;;;;4997517;28;21985;-78
2022/02/28 12:43:15;;;;;;;0.50;0.50;;;;;;;;;;5002744;28;20813;-79
2022/02/28 12:45:41;;;;;;;0.10;0.10;;;;;;;;;;5002572;28;20109;-79
2022/02/28 12:48:07;;;;;;;0.10;0.10;;;;;;;;;;4998792;28;20064;-77
2022/02/28 12:50:33;;;;;;;0.20;0.20;;;;;;;;;;5001696;28;20092;-78
2022/02/28 12:52:59;;;;;;;0.20;0.20;;;;;;;;;;5001206;28;20265;-79
2022/02/28 12:55:25;;;;;;;0.20;0.20;;;;;;;;;;5003399;28;20034;-78
2022/02/28 12:57:51;;;;;;;0.13;0.13;;;;;;;;;;5005335;28;20038;-79
2022/02/28 13:00:17;;;;;;;1.90;0.47;;;;;;;;;;5022918;28;20083;-78
2022/02/28 13:02:43;;;;;;;0.20;0.20;;;;;;;;;;5022912;28;20034;-78
2022/02/28 13:05:09;;;;;;;0.30;0.30;;;;;;;;;;5022845;28;20040;-78
2022/02/28 13:07:35;;;;;;;0.10;0.10;;;;;;;;;;5023932;28;20118;-77
2022/02/28 13:10:02;;;;;;;2.17;0.87;;;;;;;;;;5022705;28;20037;-78
2022/02/28 13:12:29;;;;;;;0.93;0.93;;;;;;;;;;5022909;28;20284;-78
2022/02/28 13:14:58;;;;;;;;;;;;;;;;;;5022894;28;20060;-78
2022/02/28 13:17:25;;;;;;;0.25;0.25;;;;;;;;;;5022749;28;19909;-78
2022/02/28 13:19:52;;;;;;;0.30;0.30;;;;;;;;;;5022932;28;20421;-78
2022/02/28 13:22:21;;;;;;;0.10;0.10;;;;;;;;;;5023059;28;20099;-78
2022/02/28 13:24:47;;;;;;;0.25;0.25;;;;;;;;;;5022148;28;20064;-78
2022/02/28 13:27:15;;;;;;;0.20;0.20;;;;;;;;;;5022446;28;20032;-78
2022/02/28 13:29:42;;;;;;;0.10;0.10;;;;;;;;;;5022062;28;20320;-78
2022/02/28 13:32:08;;;;;;;0.15;0.15;;;;;;;;;;5021848;28;20025;-78
2022/02/28 13:34:34;;;;;;;0.10;0.10;;;;;;;;;;5023043;28;20123;-78
2022/02/28 13:37:01;;;;;;;0.80;0.55;;;;;;;;;;5021789;28;20044;-78
2022/02/28 13:39:32;;;;;;;0.30;0.30;;;;;;;;;;5022159;28;20068;-78
2022/02/28 13:41:59;;;;;;;0.85;0.68;;;;;;;;;;5022022;28;20026;-78
2022/02/28 13:44:28;;;;;;;0.30;0.30;;;;;;;;;;5022119;28;20110;-78
2022/02/28 13:46:58;;;;;;;0.20;0.20;;;;;;;;;;5021690;28;20040;-78
2022/02/28 13:49:32;;;;;;;0.10;0.10;;;;;;;;;;5022402;28;20615;-77
2022/02/28 13:51:58;;;;;;;0.35;0.35;;;;;;;;;;5021921;28;20029;-78
2022/02/28 13:54:24;;;;;;;0.20;0.20;;;;;;;;;;5022157;28;20029;-78
2022/02/28 13:56:50;;;;;;;0.30;0.30;;;;;;;;;;5022188;28;20038;-78
2022/02/28 13:59:16;;;;;;;0.17;0.17;;;;;;;;;;5022426;28;20041;-78
2022/02/28 14:01:50;;;;;;;0.20;0.20;;;;;;;;;;5023283;28;20033;-78
2022/02/28 14:04:17;;;;;;;0.20;0.20;;;;;;;;;;5026103;28;20524;-78
2022/02/28 14:06:43;;;;;;;0.10;0.10;;;;;;;;;;5026055;28;20440;-76
2022/02/28 14:09:09;;;;;;;0.40;0.40;;;;;;;;;;5026207;28;20754;-76
2022/02/28 14:11:36;;;;;;;0.10;0.10;;;;;;;;;;5026380;28;20056;-76
2022/02/28 14:14:02;;;;;;;0.55;0.30;;;;;;;;;;5024841;28;20119;-76
2022/02/28 14:16:35;;;;;;;0.10;0.10;;;;;;;;;;5022596;28;20056;-77
2022/02/28 14:19:11;;;;;;;0.30;0.30;;;;;;;;;;5025917;28;20534;-77
2022/02/28 14:21:41;;;;;;;0.10;0.10;;;;;;;;;;5025715;28;20034;-77
2022/02/28 14:24:09;;;;;;;0.45;0.45;;;;;;;;;;5025576;28;20124;-77
2022/02/28 14:26:36;;;;;;;0.57;0.57;;;;;;;;;;5021408;28;20057;-76
2022/02/28 14:29:10;;;;;;;0.15;0.15;;;;;;;;;;5025769;28;20040;-77
2022/02/28 14:31:46;;;;;;;0.10;0.10;;;;;;;;;;5025087;28;20064;-77
2022/02/28 14:34:12;;;;;;;0.10;0.10;;;;;;;;;;5025502;28;20037;-77
2022/02/28 14:36:38;;;;;;;0.53;0.53;;;;;;;;;;5025098;28;20037;-77
2022/02/28 14:39:05;;;;;;;0.55;0.50;;;;;;;;;;5025326;28;20284;-77
2022/02/28 14:41:32;;;;;;;0.93;0.85;;;;;;;;;;5025749;28;20511;-77
2022/02/28 14:44:00;;;;;;;0.28;0.28;;;;;;;;;;5026065;28;20065;-77
2022/02/28 14:46:26;;;;;;;0.10;0.10;;;;;;;;;;5025837;28;20036;-77
2022/02/28 14:48:52;;;;;;;0.37;0.37;;;;;;;;;;5025220;28;20169;-76
2022/02/28 14:51:18;;;;;;;0.20;0.20;;;;;;;;;;5025466;28;20034;-77